Time;durP1;ratioP1;P1;durP2;ratioP2;P2;SDS_P1;SDS_P2;PMS_P1;PMS_P2;Temp;Humidity;BMP_temperature;BMP_pressure;BME280_temperature;BME280_humidity;BME280_pressure;Samples;Min_cycle;Max_cycle;Signal;HPM_P1;HPM_P2
2023/07/13 00:01:10;;;;;;;1.60;1.50;;;19.90;82.00;;;;;;5050017;28;20472;-70
2023/07/13 00:03:40;;;;;;;1.63;1.10;;;19.80;82.30;;;;;;5049531;28;20444;-69
2023/07/13 00:06:09;;;;;;;2.47;1.30;;;19.90;81.70;;;;;;5038679;28;20452;-69
2023/07/13 00:08:39;;;;;;;2.40;1.30;;;19.90;82.50;;;;;;5029451;28;20479;-70
2023/07/13 00:11:07;;;;;;;3.83;1.47;;;19.90;81.50;;;;;;5029958;28;20536;-69
2023/07/13 00:13:37;;;;;;;2.30;1.40;;;19.80;81.10;;;;;;5029667;28;20442;-69
2023/07/13 00:16:08;;;;;;;2.30;1.20;;;19.80;82.10;;;;;;5029990;28;21091;-70
2023/07/13 00:18:37;;;;;;;4.00;1.17;;;19.70;81.30;;;;;;5029645;28;20492;-70
2023/07/13 00:21:05;;;;;;;1.77;1.20;;;19.70;81.50;;;;;;5051843;28;20435;-69
2023/07/13 00:23:34;;;;;;;4.27;1.50;;;19.70;81.70;;;;;;5049545;28;20470;-69
2023/07/13 00:26:03;;;;;;;2.97;1.40;;;19.60;81.40;;;;;;5052118;28;20446;-69
2023/07/13 00:28:31;;;;;;;4.00;2.17;;;19.60;80.70;;;;;;5053928;28;21089;-70
2023/07/13 00:30:59;;;;;;;3.67;1.60;;;19.60;81.10;;;;;;5053722;28;20471;-70
2023/07/13 00:33:30;;;;;;;2.10;1.10;;;19.60;81.30;;;;;;5053266;28;20853;-70
2023/07/13 00:35:58;;;;;;;3.00;1.53;;;19.50;81.40;;;;;;5053296;28;21011;-69
2023/07/13 00:38:26;;;;;;;1.60;1.40;;;19.50;81.60;;;;;;5051544;28;20471;-69
2023/07/13 00:40:54;;;;;;;5.70;1.60;;;19.50;81.00;;;;;;5053152;28;20609;-69
2023/07/13 00:43:24;;;;;;;1.97;1.23;;;19.40;80.70;;;;;;5052984;28;20562;-69
2023/07/13 00:46:19;;;;;;;3.20;1.30;;;19.40;81.60;;;;;;5053371;28;20493;-69
2023/07/13 00:48:50;;;;;;;2.13;1.40;;;19.30;81.90;;;;;;5053231;28;20460;-68
2023/07/13 00:51:24;;;;;;;3.87;1.80;;;19.20;81.20;;;;;;5053207;28;20432;-69
2023/07/13 00:53:55;;;;;;;2.87;1.33;;;19.20;82.60;;;;;;5052967;28;20471;-69
2023/07/13 00:56:23;;;;;;;3.30;1.23;;;19.10;82.80;;;;;;5034321;28;20732;-68
2023/07/13 00:58:51;;;;;;;2.30;1.27;;;19.00;82.90;;;;;;5032966;28;20467;-68
2023/07/13 01:01:19;;;;;;;4.77;1.80;;;19.00;83.60;;;;;;5033240;28;20540;-68
2023/07/13 01:03:52;;;;;;;4.60;0.97;;;18.90;84.10;;;;;;5032886;28;20487;-68
2023/07/13 01:06:20;;;;;;;3.03;1.47;;;18.90;84.10;;;;;;5033599;28;20531;-68
2023/07/13 01:08:48;;;;;;;2.00;1.40;;;18.90;84.10;;;;;;5037334;28;20820;-68
2023/07/13 01:11:21;;;;;;;4.30;1.50;;;18.80;88.90;;;;;;5053113;28;20938;-68
2023/07/13 01:13:50;;;;;;;2.83;1.70;;;18.60;87.90;;;;;;5052749;28;20883;-68
2023/07/13 01:16:25;;;;;;;3.40;1.60;;;18.50;87.80;;;;;;5053145;28;20474;-68
2023/07/13 01:18:58;;;;;;;2.60;1.33;;;18.40;90.70;;;;;;5053080;28;20510;-68
2023/07/13 01:21:29;;;;;;;2.13;1.50;;;18.40;87.00;;;;;;5052464;28;20533;-68
2023/07/13 01:23:59;;;;;;;2.53;1.50;;;18.30;91.50;;;;;;5038390;28;20445;-69
2023/07/13 01:26:28;;;;;;;2.30;1.20;;;18.10;89.40;;;;;;5032614;28;20445;-70
2023/07/13 01:28:57;;;;;;;2.27;1.70;;;18.10;90.80;;;;;;5032600;28;20460;-69
2023/07/13 01:31:25;;;;;;;3.20;2.07;;;18.00;91.00;;;;;;5032315;28;20440;-69
2023/07/13 01:33:53;;;;;;;2.80;1.73;;;17.90;90.40;;;;;;5032126;28;20441;-68
2023/07/13 01:36:22;;;;;;;6.03;1.57;;;17.80;91.40;;;;;;5032054;28;20877;-68
2023/07/13 01:38:51;;;;;;;3.50;1.80;;;17.80;93.30;;;;;;5036505;28;20846;-69
2023/07/13 01:41:19;;;;;;;2.23;1.30;;;17.60;91.90;;;;;;5052146;28;20535;-69
2023/07/13 01:43:47;;;;;;;1.90;1.50;;;17.50;93.50;;;;;;5051961;28;20436;-68
2023/07/13 01:46:15;;;;;;;4.30;1.67;;;17.60;92.30;;;;;;5052204;28;20475;-70
2023/07/13 01:48:51;;;;;;;4.70;1.73;;;17.50;92.50;;;;;;5051819;28;20464;-69
2023/07/13 01:51:20;;;;;;;2.63;1.43;;;17.50;94.00;;;;;;5047603;28;20445;-69
2023/07/13 01:53:48;;;;;;;3.90;1.73;;;17.30;92.30;;;;;;5031753;28;20451;-69
2023/07/13 01:56:17;;;;;;;3.17;1.50;;;17.40;93.60;;;;;;5032165;28;20487;-70
2023/07/13 01:58:47;;;;;;;1.67;1.50;;;17.50;94.70;;;;;;5032123;28;20464;-69
2023/07/13 02:01:15;;;;;;;4.83;3.50;;;17.40;94.70;;;;;;5032708;28;20507;-69
2023/07/13 02:03:42;;;;;;;2.73;1.40;;;17.30;95.20;;;;;;5031994;28;20445;-69
2023/07/13 02:06:16;;;;;;;4.43;1.80;;;17.20;95.80;;;;;;5032159;28;20444;-69
2023/07/13 02:08:46;;;;;;;2.90;1.60;;;17.20;95.70;;;;;;5031773;28;20531;-69
2023/07/13 02:11:18;;;;;;;2.80;1.67;;;17.20;96.50;;;;;;5031733;28;20967;-68
2023/07/13 02:13:46;;;;;;;3.43;1.57;;;17.10;95.10;;;;;;5031358;28;20810;-70
2023/07/13 02:16:14;;;;;;;3.13;1.80;;;17.00;96.30;;;;;;5032206;28;20483;-69
2023/07/13 02:18:45;;;;;;;2.80;1.60;;;17.00;97.30;;;;;;5031913;28;20563;-69
2023/07/13 02:21:13;;;;;;;1.90;1.27;;;17.00;94.60;;;;;;5031764;28;20477;-69
2023/07/13 02:23:41;;;;;;;2.03;1.83;;;17.00;95.60;;;;;;5031244;28;20445;-70
2023/07/13 02:26:09;;;;;;;5.23;2.10;;;17.00;96.40;;;;;;5031322;28;20866;-70
2023/07/13 02:28:38;;;;;;;2.60;1.67;;;17.00;96.50;;;;;;5031611;28;20481;-70
2023/07/13 02:31:07;;;;;;;4.63;1.63;;;17.20;94.70;;;;;;5032432;28;20548;-70
2023/07/13 02:33:35;;;;;;;2.60;1.57;;;17.20;94.90;;;;;;5031477;28;20444;-71
2023/07/13 02:36:05;;;;;;;2.03;1.63;;;17.30;94.30;;;;;;5031377;28;20437;-70
2023/07/13 02:38:34;;;;;;;5.63;1.93;;;17.10;94.20;;;;;;5031301;28;20620;-70
2023/07/13 02:41:02;;;;;;;3.13;1.70;;;17.00;95.40;;;;;;5031481;28;20563;-69
2023/07/13 02:43:30;;;;;;;5.20;1.53;;;17.00;94.90;;;;;;5031000;28;20484;-69
2023/07/13 02:46:03;;;;;;;2.20;1.73;;;17.10;96.50;;;;;;5031116;28;20444;-69
2023/07/13 02:48:31;;;;;;;2.20;1.70;;;17.10;94.80;;;;;;5041703;28;20474;-70
2023/07/13 02:50:59;;;;;;;2.03;1.70;;;17.00;94.60;;;;;;5050417;28;20451;-70
2023/07/13 02:53:27;;;;;;;2.27;1.63;;;17.00;94.80;;;;;;5050586;28;20486;-70
2023/07/13 02:55:55;;;;;;;3.60;1.73;;;17.10;95.40;;;;;;5050640;28;20446;-69
2023/07/13 02:58:23;;;;;;;5.77;1.70;;;17.00;96.00;;;;;;5050923;28;20558;-69
2023/07/13 03:00:51;;;;;;;2.50;1.67;;;17.00;95.20;;;;;;5051074;28;20889;-70
2023/07/13 03:03:21;;;;;;;5.13;1.90;;;16.80;95.60;;;;;;5050840;28;20547;-68
2023/07/13 03:05:49;;;;;;;3.07;1.77;;;16.80;97.90;;;;;;5031132;28;20863;-69
2023/07/13 03:08:19;;;;;;;2.43;1.50;;;16.80;99.80;;;;;;5030594;28;20967;-71
2023/07/13 03:10:46;;;;;;;1.77;1.63;;;16.70;97.90;;;;;;5030812;28;20439;-69
2023/07/13 03:13:14;;;;;;;5.90;1.90;;;16.60;97.10;;;;;;5030325;28;20956;-69
2023/07/13 03:15:42;;;;;;;3.90;2.20;;;16.60;98.90;;;;;;5030361;28;20452;-70
2023/07/13 03:18:10;;;;;;;2.97;1.73;;;16.70;99.90;;;;;;5030478;28;20982;-70
2023/07/13 03:20:40;;;;;;;4.67;2.67;;;16.70;99.40;;;;;;5037356;28;20479;-69
2023/07/13 03:23:07;;;;;;;4.17;1.70;;;16.80;99.90;;;;;;5050043;28;20471;-69
2023/07/13 03:25:35;;;;;;;2.80;1.50;;;16.80;99.90;;;;;;5050321;28;20450;-69
2023/07/13 03:28:04;;;;;;;3.33;1.53;;;16.90;99.90;;;;;;5050207;28;20468;-70
2023/07/13 03:30:32;;;;;;;2.17;1.97;;;16.90;99.90;;;;;;5050053;28;21056;-69
2023/07/13 03:33:00;;;;;;;2.53;1.90;;;16.80;99.90;;;;;;5049973;28;20574;-69
2023/07/13 03:35:28;;;;;;;2.50;1.60;;;16.80;99.90;;;;;;5050404;28;20474;-69
2023/07/13 03:37:58;;;;;;;2.90;1.57;;;16.90;99.90;;;;;;5048294;28;20454;-69
2023/07/13 03:40:27;;;;;;;2.87;2.40;;;17.00;99.90;;;;;;5050054;28;20543;-69
2023/07/13 03:42:57;;;;;;;4.70;1.90;;;17.00;99.90;;;;;;5049494;28;20444;-69
2023/07/13 03:45:25;;;;;;;2.13;1.80;;;17.10;99.90;;;;;;5050140;28;20525;-69
2023/07/13 03:47:53;;;;;;;2.90;1.93;;;17.20;99.90;;;;;;5049754;28;20467;-69
2023/07/13 03:50:21;;;;;;;3.90;2.03;;;17.30;99.90;;;;;;5049974;28;20470;-70
2023/07/13 03:52:49;;;;;;;3.63;1.83;;;17.30;99.90;;;;;;5032640;28;20445;-70
2023/07/13 03:55:18;;;;;;;3.10;2.27;;;17.30;99.90;;;;;;5030165;28;20445;-69
2023/07/13 03:57:47;;;;;;;2.93;1.87;;;17.30;99.90;;;;;;5030053;28;20444;-70
2023/07/13 04:00:18;;;;;;;1.60;1.50;;;17.40;99.90;;;;;;5029565;28;20492;-70
2023/07/13 04:02:49;;;;;;;2.30;2.10;;;17.50;99.90;;;;;;5029511;28;20472;-70
2023/07/13 04:05:18;;;;;;;4.50;1.80;;;17.70;99.90;;;;;;5033131;28;20471;-68
2023/07/13 04:07:48;;;;;;;4.00;1.80;;;17.70;99.90;;;;;;5049469;28;20490;-69
2023/07/13 04:10:16;;;;;;;3.30;1.90;;;17.60;99.90;;;;;;5049599;28;20452;-70
2023/07/13 04:12:46;;;;;;;2.93;1.70;;;17.40;99.90;;;;;;5049458;28;20528;-67
2023/07/13 04:15:14;;;;;;;3.50;1.87;;;17.30;99.90;;;;;;5049546;28;20442;-66
2023/07/13 04:17:42;;;;;;;5.30;1.80;;;17.30;99.90;;;;;;5049803;28;20448;-64
2023/07/13 04:20:11;;;;;;;2.13;1.80;;;17.30;99.90;;;;;;5049506;28;20491;-64
2023/07/13 04:22:39;;;;;;;5.10;2.30;;;17.40;99.90;;;;;;5047746;28;20522;-65
2023/07/13 04:25:08;;;;;;;5.23;1.97;;;17.70;99.90;;;;;;5049523;28;20978;-65
2023/07/13 04:27:35;;;;;;;4.63;1.90;;;17.80;99.90;;;;;;5049475;28;20883;-66
2023/07/13 04:30:06;;;;;;;3.00;1.60;;;17.90;99.90;;;;;;5049463;28;20551;-66
2023/07/13 04:32:34;;;;;;;4.47;2.10;;;18.00;99.70;;;;;;5049090;28;20858;-65
2023/07/13 04:35:03;;;;;;;3.20;2.33;;;18.00;99.70;;;;;;5049402;28;20444;-66
2023/07/13 04:37:31;;;;;;;3.70;3.20;;;18.10;99.00;;;;;;5049534;28;20447;-65
2023/07/13 04:39:59;;;;;;;5.00;2.90;;;18.00;98.40;;;;;;5047744;28;20490;-64
2023/07/13 04:42:27;;;;;;;3.07;2.00;;;18.00;98.20;;;;;;5049024;28;20484;-64
2023/07/13 04:44:55;;;;;;;4.37;2.10;;;18.10;97.50;;;;;;5058374;28;20452;-63
2023/07/13 04:47:24;;;;;;;2.00;1.80;;;18.00;97.70;;;;;;5044459;28;20444;-65
2023/07/13 04:49:52;;;;;;;6.80;2.00;;;18.00;98.50;;;;;;5048956;28;20460;-62
2023/07/13 04:52:21;;;;;;;3.80;1.60;;;17.90;98.40;;;;;;5044808;28;20457;-65
2023/07/13 04:54:49;;;;;;;5.17;2.00;;;17.80;98.30;;;;;;5041716;28;20945;-67
2023/07/13 04:57:16;;;;;;;3.77;1.90;;;17.70;98.30;;;;;;5045041;28;20539;-63
2023/07/13 04:59:45;;;;;;;3.40;1.60;;;17.70;98.30;;;;;;5047151;28;21097;-64
2023/07/13 05:02:13;;;;;;;4.80;2.30;;;17.70;98.00;;;;;;5047693;28;20475;-66
2023/07/13 05:04:42;;;;;;;3.60;2.00;;;17.70;97.70;;;;;;5047722;28;20490;-65
2023/07/13 05:07:11;;;;;;;3.10;2.00;;;17.70;98.20;;;;;;5047702;28;20483;-65
2023/07/13 05:09:39;;;;;;;2.40;1.97;;;17.70;97.80;;;;;;5043137;28;21078;-66
2023/07/13 05:12:09;;;;;;;4.13;2.10;;;17.80;97.40;;;;;;5045424;28;20520;-66
2023/07/13 05:14:37;;;;;;;6.07;2.00;;;17.80;97.40;;;;;;5050833;28;20872;-64
2023/07/13 05:17:05;;;;;;;4.60;1.97;;;18.00;97.60;;;;;;5051105;28;20448;-65
2023/07/13 05:19:33;;;;;;;5.97;2.40;;;18.20;96.60;;;;;;5051046;28;20985;-65
2023/07/13 05:22:03;;;;;;;6.53;1.90;;;18.40;95.10;;;;;;5050960;28;20900;-66
2023/07/13 05:24:32;;;;;;;2.30;1.73;;;18.50;93.60;;;;;;5051081;28;20444;-67
2023/07/13 05:26:59;;;;;;;5.03;1.60;;;18.70;92.60;;;;;;5051336;28;20471;-66
2023/07/13 05:29:27;;;;;;;3.67;1.77;;;18.80;93.80;;;;;;5034756;28;20469;-63
2023/07/13 05:31:57;;;;;;;3.37;1.80;;;19.00;94.10;;;;;;5031315;28;20451;-67
2023/07/13 05:34:26;;;;;;;3.00;1.93;;;19.10;93.90;;;;;;5031981;28;20475;-66
2023/07/13 05:36:54;;;;;;;4.60;2.00;;;19.10;94.40;;;;;;5032346;28;20499;-65
2023/07/13 05:39:24;;;;;;;3.77;2.20;;;19.30;94.60;;;;;;5032238;28;20522;-67
2023/07/13 05:41:52;;;;;;;4.13;1.80;;;19.30;94.60;;;;;;5031912;28;20487;-65
2023/07/13 05:44:20;;;;;;;3.37;1.90;;;19.30;94.00;;;;;;5036876;28;20476;-69
2023/07/13 05:46:48;;;;;;;3.30;1.87;;;19.40;94.20;;;;;;5072066;28;20447;-67
2023/07/13 05:49:16;;;;;;;3.00;1.83;;;19.40;93.60;;;;;;5072201;28;20463;-67
2023/07/13 05:51:44;;;;;;;3.43;2.20;;;19.50;93.00;;;;;;5063385;28;20444;-67
2023/07/13 05:54:12;;;;;;;3.03;2.20;;;19.50;93.20;;;;;;5048768;28;20506;-66
2023/07/13 05:56:41;;;;;;;4.80;2.10;;;19.50;94.50;;;;;;5048159;28;20813;-64
2023/07/13 05:59:09;;;;;;;3.73;1.93;;;19.40;95.20;;;;;;5049946;28;20480;-65
2023/07/13 06:01:37;;;;;;;2.80;2.10;;;19.30;93.30;;;;;;5051479;28;20443;-65
2023/07/13 06:04:05;;;;;;;3.47;2.07;;;19.20;93.60;;;;;;5051064;28;20432;-65
2023/07/13 06:06:33;;;;;;;4.23;1.87;;;19.20;93.20;;;;;;5050872;28;20459;-63
2023/07/13 06:09:01;;;;;;;2.80;1.73;;;19.20;93.00;;;;;;5051465;28;20552;-66
2023/07/13 06:11:30;;;;;;;2.50;2.00;;;19.30;91.80;;;;;;5048357;28;20472;-70
2023/07/13 06:13:59;;;;;;;11.43;3.20;;;19.50;91.70;;;;;;5045988;28;20482;-65
2023/07/13 06:16:27;;;;;;;3.80;2.10;;;19.60;89.20;;;;;;5051764;28;20448;-66
2023/07/13 06:18:55;;;;;;;3.20;1.80;;;19.70;88.40;;;;;;5051383;28;20468;-66
2023/07/13 06:21:24;;;;;;;2.53;1.90;;;19.80;88.80;;;;;;5050815;28;20478;-66
2023/07/13 06:23:53;;;;;;;2.70;2.00;;;19.80;89.70;;;;;;5049978;28;20993;-64
2023/07/13 06:26:22;;;;;;;3.40;2.03;;;19.80;85.70;;;;;;5051439;28;20941;-66
2023/07/13 06:28:50;;;;;;;3.20;2.10;;;19.90;86.10;;;;;;5052137;28;20464;-67
2023/07/13 06:31:19;;;;;;;3.40;2.27;;;19.90;85.50;;;;;;5048561;28;20487;-67
2023/07/13 06:33:47;;;;;;;2.30;2.00;;;19.90;86.70;;;;;;5048459;28;20443;-68
2023/07/13 06:36:15;;;;;;;5.40;2.03;;;19.80;85.50;;;;;;5051958;28;20439;-68
2023/07/13 06:38:43;;;;;;;2.27;1.90;;;19.60;86.60;;;;;;5057259;28;20452;-68
2023/07/13 06:41:13;;;;;;;3.10;1.97;;;19.50;87.10;;;;;;5046448;28;21008;-70
2023/07/13 06:43:42;;;;;;;5.70;2.27;;;19.60;87.60;;;;;;5050809;28;20476;-67
2023/07/13 06:46:10;;;;;;;4.77;2.40;;;19.70;86.30;;;;;;5046661;28;20563;-67
2023/07/13 06:48:40;;;;;;;3.27;1.93;;;19.70;84.20;;;;;;5055042;28;20463;-67
2023/07/13 06:51:09;;;;;;;3.93;2.20;;;20.00;81.40;;;;;;5054689;28;20479;-68
2023/07/13 06:53:37;;;;;;;2.20;1.83;;;20.20;78.60;;;;;;5036459;28;20456;-66
2023/07/13 06:56:05;;;;;;;2.27;1.73;;;20.40;79.20;;;;;;5050588;28;20459;-66
2023/07/13 06:58:35;;;;;;;1.90;1.70;;;20.60;76.20;;;;;;5047777;28;20471;-67
2023/07/13 07:01:03;;;;;;;3.80;2.00;;;20.70;76.70;;;;;;5049724;28;20471;-66
2023/07/13 07:03:33;;;;;;;3.83;1.63;;;20.90;74.00;;;;;;5050282;28;20517;-68
2023/07/13 07:06:07;;;;;;;4.33;1.70;;;21.10;71.70;;;;;;5050738;28;20455;-68
2023/07/13 07:08:35;;;;;;;2.77;1.70;;;21.20;73.20;;;;;;5050543;28;20487;-67
2023/07/13 07:11:03;;;;;;;2.07;1.80;;;21.20;72.30;;;;;;5050469;28;20444;-66
2023/07/13 07:13:31;;;;;;;1.73;1.63;;;21.20;72.30;;;;;;5033391;28;20452;-68
2023/07/13 07:16:00;;;;;;;3.00;1.87;;;21.20;68.90;;;;;;5030277;28;21016;-69
2023/07/13 07:18:28;;;;;;;6.10;2.00;;;21.20;70.20;;;;;;5030365;28;20461;-68
2023/07/13 07:20:55;;;;;;;2.00;1.63;;;21.10;69.10;;;;;;5030413;28;20476;-67
2023/07/13 07:23:25;;;;;;;3.90;1.77;;;21.10;69.30;;;;;;5029988;28;20464;-68
2023/07/13 07:25:53;;;;;;;3.37;1.93;;;21.00;68.40;;;;;;5030277;28;20544;-67
2023/07/13 07:28:21;;;;;;;2.60;1.63;;;21.10;69.60;;;;;;5031552;28;20826;-67
2023/07/13 07:30:55;;;;;;;7.73;1.77;;;21.10;69.80;;;;;;5030632;28;20981;-67
2023/07/13 07:33:26;;;;;;;2.77;1.90;;;21.20;68.50;;;;;;5030212;28;20456;-67
2023/07/13 07:35:54;;;;;;;4.90;1.60;;;21.10;70.10;;;;;;5029826;28;20467;-67
2023/07/13 07:38:26;;;;;;;4.93;1.70;;;21.20;72.10;;;;;;4968597;28;20514;-69
2023/07/13 07:40:54;;;;;;;3.90;1.70;;;21.40;71.90;;;;;;4968962;28;20479;-67
2023/07/13 07:43:25;;;;;;;3.83;1.50;;;21.40;67.10;;;;;;4968463;28;20480;-67
2023/07/13 07:45:53;;;;;;;2.00;1.50;;;21.50;66.60;;;;;;4970010;28;20799;-66
2023/07/13 07:48:21;;;;;;;2.70;1.37;;;21.60;63.50;;;;;;4968738;28;20443;-67
2023/07/13 07:50:49;;;;;;;2.90;1.50;;;21.80;62.60;;;;;;4969082;28;20511;-65
2023/07/13 07:53:17;;;;;;;1.73;1.20;;;21.70;62.10;;;;;;4987864;28;20446;-66
2023/07/13 07:55:47;;;;;;;3.40;2.00;;;21.80;64.80;;;;;;4985627;28;20536;-66
2023/07/13 07:58:18;;;;;;;2.50;1.47;;;21.80;62.10;;;;;;5029805;28;20433;-66
2023/07/13 08:01:07;;;;;;;2.38;1.70;;;21.80;62.40;;;;;;5041945;28;20455;-66
2023/07/13 08:03:38;;;;;;;2.77;1.60;;;21.80;63.50;;;;;;4986970;28;20414;-65
2023/07/13 08:06:08;;;;;;;1.90;1.30;;;21.80;60.70;;;;;;4919550;29;20463;-66
2023/07/13 08:08:39;;;;;;;5.43;1.47;;;21.80;60.00;;;;;;4910892;29;20477;-68
2023/07/13 08:11:10;;;;;;;3.10;1.73;;;21.80;59.50;;;;;;4911247;29;20455;-67
2023/07/13 08:13:41;;;;;;;3.23;1.40;;;21.80;59.30;;;;;;4911109;29;20475;-67
2023/07/13 08:16:09;;;;;;;2.77;1.37;;;21.90;58.30;;;;;;4911158;29;20451;-65
2023/07/13 08:18:37;;;;;;;2.50;1.30;;;22.00;58.70;;;;;;4911192;29;20480;-68
2023/07/13 08:21:06;;;;;;;3.10;1.50;;;22.10;57.10;;;;;;4925397;28;20447;-68
2023/07/13 08:23:35;;;;;;;3.77;1.43;;;22.20;57.90;;;;;;5009075;28;20513;-69
2023/07/13 08:26:04;;;;;;;4.63;1.50;;;22.20;57.90;;;;;;5029822;28;20441;-69
2023/07/13 08:28:34;;;;;;;1.63;1.13;;;22.30;58.00;;;;;;5029862;28;20982;-70
2023/07/13 08:31:03;;;;;;;2.77;1.50;;;22.40;58.00;;;;;;5030089;28;21088;-69
2023/07/13 08:33:31;;;;;;;10.90;3.00;;;22.70;57.10;;;;;;5029478;28;21179;-68
2023/07/13 08:35:59;;;;;;;12.03;2.10;;;22.80;56.50;;;;;;5029849;28;20815;-67
2023/07/13 08:38:27;;;;;;;4.10;1.30;;;22.80;56.20;;;;;;5030594;28;20472;-67
2023/07/13 08:40:57;;;;;;;2.90;1.77;;;22.90;56.90;;;;;;5029590;28;20506;-69
2023/07/13 08:43:29;;;;;;;2.40;1.50;;;23.00;55.70;;;;;;5029474;28;21216;-68
2023/07/13 08:46:05;;;;;;;3.43;1.53;;;23.20;53.40;;;;;;5030365;28;20441;-72
2023/07/13 08:48:37;;;;;;;5.70;2.10;;;23.20;55.20;;;;;;5033797;28;20456;-66
2023/07/13 08:51:18;;;;;;;5.43;1.80;;;23.30;55.60;;;;;;5033823;28;20465;-68
2023/07/13 08:53:50;;;;;;;4.40;1.93;;;23.40;53.40;;;;;;5033563;28;20436;-65
2023/07/13 08:56:21;;;;;;;2.30;1.40;;;23.40;52.60;;;;;;5034886;28;20453;-65
2023/07/13 08:58:55;;;;;;;1.93;1.30;;;23.40;53.70;;;;;;5033522;28;20456;-66
2023/07/13 09:01:32;;;;;;;2.10;1.60;;;23.40;53.20;;;;;;5033517;28;20482;-66
2023/07/13 09:04:06;;;;;;;2.97;1.23;;;23.50;53.10;;;;;;5041184;28;20483;-65
2023/07/13 09:06:43;;;;;;;3.10;1.60;;;23.60;53.00;;;;;;5051912;28;20444;-64
2023/07/13 09:09:21;;;;;;;4.00;1.67;;;23.80;52.90;;;;;;5053052;28;20890;-65
2023/07/13 09:11:57;;;;;;;2.60;1.10;;;23.90;53.10;;;;;;5053104;28;20436;-65
2023/07/13 09:14:35;;;;;;;4.33;1.40;;;24.00;52.10;;;;;;5052912;28;20432;-65
2023/07/13 09:17:06;;;;;;;2.90;1.40;;;23.90;51.00;;;;;;5053194;28;20442;-66
2023/07/13 09:19:35;;;;;;;2.20;1.57;;;23.80;51.30;;;;;;5049386;28;20563;-66
2023/07/13 09:22:06;;;;;;;1.77;1.63;;;24.00;51.70;;;;;;5032761;28;20818;-65
2023/07/13 09:24:40;;;;;;;4.03;1.90;;;24.10;52.00;;;;;;5032470;28;20468;-66
2023/07/13 09:27:17;;;;;;;4.17;1.50;;;24.40;52.00;;;;;;5033122;28;20854;-65
2023/07/13 09:29:51;;;;;;;4.17;2.13;;;24.50;51.00;;;;;;5032804;28;20561;-65
2023/07/13 09:32:24;;;;;;;4.03;1.93;;;24.50;52.30;;;;;;5032696;28;20437;-66
2023/07/13 09:34:54;;;;;;;5.67;1.67;;;24.60;52.90;;;;;;5032673;28;20432;-65
2023/07/13 09:37:24;;;;;;;4.00;1.60;;;24.50;53.10;;;;;;5048403;28;20456;-65
2023/07/13 09:39:54;;;;;;;4.13;1.77;;;24.50;50.90;;;;;;5052425;28;20522;-65
2023/07/13 09:42:23;;;;;;;3.00;1.57;;;24.60;50.00;;;;;;5052549;28;20448;-66
2023/07/13 09:44:54;;;;;;;2.57;1.30;;;24.50;50.20;;;;;;5052203;28;20939;-64
2023/07/13 09:47:26;;;;;;;4.60;1.80;;;24.50;50.00;;;;;;5052338;28;20539;-66
2023/07/13 09:49:59;;;;;;;6.80;2.63;;;24.60;50.10;;;;;;5052444;28;20456;-66
2023/07/13 09:52:43;;;;;;;2.43;1.70;;;24.70;49.90;;;;;;5050529;28;20448;-65
2023/07/13 09:55:30;;;;;;;3.07;1.70;;;24.70;48.70;;;;;;5051430;28;20444;-66
2023/07/13 09:57:58;;;;;;;3.43;1.33;;;24.60;48.80;;;;;;5051721;28;20440;-67
2023/07/13 10:00:29;;;;;;;3.93;1.37;;;24.70;48.40;;;;;;5051993;28;20547;-66
2023/07/13 10:03:05;;;;;;;3.77;1.70;;;25.00;47.90;;;;;;5051815;28;20922;-66
2023/07/13 10:05:42;;;;;;;3.40;1.40;;;25.50;49.20;;;;;;5052101;28;20511;-67
2023/07/13 10:08:20;;;;;;;4.53;1.67;;;26.50;47.50;;;;;;5042123;28;20472;-67
2023/07/13 10:10:55;;;;;;;4.73;1.60;;;26.90;46.20;;;;;;5049995;28;20447;-65
2023/07/13 10:13:41;;;;;;;5.43;1.47;;;27.50;45.30;;;;;;5051868;28;20446;-65
2023/07/13 10:16:10;;;;;;;2.70;1.53;;;27.50;44.20;;;;;;5051147;28;20436;-65
2023/07/13 10:18:46;;;;;;;3.50;1.77;;;27.50;44.30;;;;;;5049901;28;20551;-66
2023/07/13 10:21:17;;;;;;;4.50;2.07;;;27.60;43.70;;;;;;5051181;28;20475;-65
2023/07/13 10:24:07;;;;;;;2.17;1.60;;;27.70;44.10;;;;;;5051372;28;20806;-65
2023/07/13 10:26:35;;;;;;;2.50;1.40;;;27.50;44.50;;;;;;5051721;28;20436;-65
2023/07/13 10:29:10;;;;;;;3.50;1.67;;;27.40;44.30;;;;;;5051257;28;20460;-65
2023/07/13 10:31:39;;;;;;;4.30;1.87;;;27.30;44.60;;;;;;5047964;28;20456;-64
2023/07/13 10:34:11;;;;;;;5.13;1.70;;;26.90;44.70;;;;;;5031364;28;20528;-65
2023/07/13 10:36:43;;;;;;;4.90;1.50;;;26.70;45.30;;;;;;5031646;28;20931;-64
2023/07/13 10:39:18;;;;;;;3.67;1.60;;;26.70;45.10;;;;;;5031628;28;20469;-64
2023/07/13 10:41:50;;;;;;;3.13;1.70;;;26.80;45.20;;;;;;5031376;28;20506;-66
2023/07/13 10:44:25;;;;;;;3.83;2.27;;;26.90;45.30;;;;;;5031446;28;20444;-66
2023/07/13 10:46:56;;;;;;;2.60;1.53;;;26.90;44.30;;;;;;5031724;28;20432;-66
2023/07/13 10:49:28;;;;;;;4.47;1.80;;;26.90;44.10;;;;;;5044719;28;20839;-66
2023/07/13 10:51:56;;;;;;;5.30;1.60;;;26.80;44.00;;;;;;5051466;28;20550;-66
2023/07/13 10:54:31;;;;;;;3.33;1.93;;;26.80;43.40;;;;;;5051395;28;20443;-66
2023/07/13 10:57:20;;;;;;;3.93;2.67;;;27.40;45.40;;;;;;5051648;28;20431;-66
2023/07/13 10:59:50;;;;;;;3.83;1.83;;;27.80;43.10;;;;;;5051225;28;20456;-66
2023/07/13 11:02:27;;;;;;;4.10;1.90;;;27.70;43.00;;;;;;5050983;28;20502;-65
2023/07/13 11:04:58;;;;;;;3.27;1.60;;;27.50;42.80;;;;;;5044349;28;20504;-65
2023/07/13 11:07:28;;;;;;;2.70;1.70;;;27.70;44.60;;;;;;5031266;28;20846;-65
2023/07/13 11:09:58;;;;;;;2.10;1.47;;;28.00;43.20;;;;;;5030158;28;20472;-65
2023/07/13 11:12:51;;;;;;;3.07;1.70;;;28.20;42.10;;;;;;5031035;28;20532;-65
2023/07/13 11:15:33;;;;;;;2.23;1.57;;;28.50;41.20;;;;;;5043499;28;20437;-66
2023/07/13 11:18:04;;;;;;;3.60;1.73;;;28.00;43.10;;;;;;5050540;28;20448;-66
2023/07/13 11:20:39;;;;;;;4.27;1.50;;;27.00;42.80;;;;;;5050487;28;20444;-67
2023/07/13 11:23:27;;;;;;;3.77;1.50;;;26.80;43.20;;;;;;5048737;28;21092;-67
2023/07/13 11:25:55;;;;;;;3.10;1.80;;;27.70;44.50;;;;;;5048693;28;20510;-68
2023/07/13 11:28:26;;;;;;;5.00;2.37;;;28.90;41.50;;;;;;5049122;28;20460;-67
2023/07/13 11:31:15;;;;;;;3.10;1.73;;;29.10;39.60;;;;;;5050396;28;20448;-68
2023/07/13 11:33:56;;;;;;;4.70;1.90;;;29.20;40.30;;;;;;5049802;28;20527;-68
2023/07/13 11:36:38;;;;;;;3.23;1.67;;;28.70;39.30;;;;;;5050476;28;20475;-66
2023/07/13 11:39:19;;;;;;;4.43;1.90;;;28.40;40.00;;;;;;5035901;28;21002;-68
2023/07/13 11:41:52;;;;;;;3.50;1.50;;;28.10;39.60;;;;;;5030180;28;20800;-67
2023/07/13 11:44:23;;;;;;;2.60;1.70;;;28.70;41.10;;;;;;5029782;28;20810;-68
2023/07/13 11:46:53;;;;;;;5.10;1.70;;;29.70;39.20;;;;;;5050253;28;20559;-67
2023/07/13 11:49:24;;;;;;;2.67;1.57;;;29.10;38.90;;;;;;5039336;28;20872;-66
2023/07/13 11:51:55;;;;;;;4.03;2.33;;;28.40;38.90;;;;;;5049173;28;20561;-67
2023/07/13 11:54:30;;;;;;;2.67;1.40;;;29.20;40.60;;;;;;5049030;28;20455;-67
2023/07/13 11:57:02;;;;;;;3.33;1.70;;;30.10;37.90;;;;;;5049642;28;20432;-66
2023/07/13 11:59:32;;;;;;;6.67;1.70;;;30.00;37.00;;;;;;5049813;28;20471;-68
2023/07/13 12:02:02;;;;;;;3.83;1.67;;;29.50;37.50;;;;;;5049473;28;20444;-68
2023/07/13 12:04:33;;;;;;;4.80;1.97;;;29.10;38.40;;;;;;5049547;28;20543;-68
2023/07/13 12:07:08;;;;;;;1.97;1.60;;;29.10;38.70;;;;;;5048428;28;20498;-68
2023/07/13 12:09:37;;;;;;;3.30;1.80;;;29.40;38.00;;;;;;5049681;28;20536;-67
2023/07/13 12:12:12;;;;;;;1.93;1.70;;;29.60;37.30;;;;;;5049567;28;20444;-67
2023/07/13 12:14:41;;;;;;;2.90;1.80;;;29.40;37.70;;;;;;5049691;28;20498;-67
2023/07/13 12:17:19;;;;;;;6.27;1.87;;;28.90;38.30;;;;;;5049542;28;20534;-67
2023/07/13 12:19:48;;;;;;;7.20;1.83;;;27.80;39.60;;;;;;5049496;28;20464;-66
2023/07/13 12:22:19;;;;;;;2.40;1.60;;;26.90;40.00;;;;;;5040560;28;20493;-66
2023/07/13 12:24:49;;;;;;;7.70;1.73;;;26.20;42.70;;;;;;5029677;28;20437;-66
2023/07/13 12:27:22;;;;;;;3.33;1.77;;;26.00;42.40;;;;;;5029674;28;20682;-68
2023/07/13 12:29:54;;;;;;;3.70;2.00;;;26.90;42.30;;;;;;5029615;28;20453;-67
2023/07/13 12:32:24;;;;;;;3.93;1.80;;;28.10;39.70;;;;;;5029473;28;20441;-67
2023/07/13 12:34:55;;;;;;;4.80;2.13;;;28.50;38.80;;;;;;5029426;28;20511;-67
2023/07/13 12:37:25;;;;;;;4.60;2.07;;;29.10;38.20;;;;;;5029755;28;20437;-68
2023/07/13 12:39:53;;;;;;;4.23;1.70;;;29.40;37.10;;;;;;5030482;28;20477;-68
2023/07/13 12:42:27;;;;;;;5.27;2.00;;;29.40;37.20;;;;;;5032074;28;21187;-68
2023/07/13 12:44:59;;;;;;;3.63;2.30;;;29.70;36.80;;;;;;5049752;28;20467;-68
2023/07/13 12:47:28;;;;;;;5.47;2.27;;;30.30;36.40;;;;;;5049605;28;20953;-67
2023/07/13 12:49:58;;;;;;;3.50;1.90;;;31.00;34.10;;;;;;5049444;28;20543;-66
2023/07/13 12:52:32;;;;;;;2.90;2.63;;;31.20;34.10;;;;;;5049343;28;20447;-67
2023/07/13 12:55:06;;;;;;;5.00;2.07;;;31.20;33.40;;;;;;5043415;28;21038;-67
2023/07/13 12:57:40;;;;;;;2.40;1.37;;;31.00;32.50;;;;;;5029320;28;20441;-67
2023/07/13 13:00:24;;;;;;;7.30;1.70;;;30.20;33.50;;;;;;5029459;28;20844;-67
2023/07/13 13:02:55;;;;;;;3.17;1.80;;;30.10;34.40;;;;;;5029150;28;20525;-67